createdAt,value
2023-02-19T00:01:47.225Z,9.80
2023-02-19T00:04:32.641Z,9.70
2023-02-19T00:07:18.035Z,9.70
2023-02-19T00:10:04.005Z,9.60
2023-02-19T00:12:49.116Z,9.60
2023-02-19T00:15:34.482Z,9.50
2023-02-19T00:18:19.773Z,9.50
2023-02-19T00:21:05.545Z,9.60
2023-02-19T00:23:52.923Z,9.60
2023-02-19T00:26:39.954Z,9.60
2023-02-19T00:29:25.211Z,9.50
2023-02-19T00:32:10.779Z,9.50
2023-02-19T00:34:56.280Z,9.50
2023-02-19T00:37:41.661Z,9.50
2023-02-19T00:40:27.322Z,9.40
2023-02-19T00:43:12.473Z,9.50
2023-02-19T00:45:57.914Z,9.50
2023-02-19T00:48:43.236Z,9.50
2023-02-19T00:51:32.283Z,9.50
2023-02-19T00:54:18.628Z,9.50
2023-02-19T00:57:03.992Z,9.40
2023-02-19T00:59:49.243Z,9.50
2023-02-19T01:02:34.878Z,9.60
2023-02-19T01:05:20.084Z,9.50
2023-02-19T01:08:05.490Z,9.50
2023-02-19T01:10:51.177Z,9.50
2023-02-19T01:13:36.887Z,9.40
2023-02-19T01:16:27.373Z,9.50
2023-02-19T01:19:12.750Z,9.50
2023-02-19T01:21:58.116Z,9.60
2023-02-19T01:24:43.452Z,9.50
2023-02-19T01:27:28.722Z,9.70
2023-02-19T01:30:14.449Z,9.60
2023-02-19T01:32:59.422Z,9.50
2023-02-19T01:35:44.713Z,9.50
2023-02-19T01:38:30.041Z,9.50
2023-02-19T01:41:19.592Z,9.60
2023-02-19T01:44:27.786Z,9.60
2023-02-19T01:47:16.809Z,9.50
2023-02-19T01:50:01.908Z,9.50
2023-02-19T01:52:47.889Z,9.50
2023-02-19T01:55:34.661Z,9.40
2023-02-19T01:58:20.076Z,9.40
2023-02-19T02:01:08.526Z,9.40
2023-02-19T02:03:54.268Z,9.50
2023-02-19T02:06:52.045Z,9.50
2023-02-19T02:09:55.941Z,9.60
2023-02-19T02:12:41.391Z,9.50
2023-02-19T02:15:36.379Z,9.50
2023-02-19T02:18:40.290Z,9.60
2023-02-19T02:21:58.934Z,9.40
2023-02-19T02:24:57.287Z,9.40
2023-02-19T02:28:06.855Z,9.40
2023-02-19T02:30:58.872Z,9.30
2023-02-19T02:33:54.744Z,9.40
2023-02-19T02:36:43.957Z,9.40
2023-02-19T02:39:32.179Z,9.40
2023-02-19T02:42:29.495Z,9.40
2023-02-19T02:45:37.709Z,9.20
2023-02-19T02:48:49.442Z,9.20
2023-02-19T02:51:38.900Z,9.20
2023-02-19T02:54:48.380Z,9.20
2023-02-19T02:57:33.781Z,9.20
2023-02-19T03:00:19.230Z,9.20
2023-02-19T03:03:05.390Z,9.20
2023-02-19T03:05:56.102Z,9.20
2023-02-19T03:08:54.488Z,9.20
2023-02-19T03:12:02.351Z,9.20
2023-02-19T03:15:12.246Z,9.20
2023-02-19T03:18:20.859Z,9.30
2023-02-19T03:21:08.729Z,9.30
2023-02-19T03:24:15.748Z,9.20
2023-02-19T03:27:04.004Z,9.10
2023-02-19T03:29:51.632Z,9.10
2023-02-19T03:32:43.991Z,8.90
2023-02-19T03:35:33.525Z,9.00
2023-02-19T03:38:36.783Z,9.20
2023-02-19T03:41:36.419Z,9.10
2023-02-19T03:44:46.505Z,9.10
2023-02-19T03:47:50.951Z,9.00
2023-02-19T03:50:56.969Z,9.10
2023-02-19T03:53:53.229Z,9.00
2023-02-19T03:56:49.241Z,9.00
2023-02-19T04:00:18.676Z,9.00
2023-02-19T04:03:15.918Z,9.00
2023-02-19T04:06:10.747Z,9.10
2023-02-19T04:09:00.145Z,9.10
2023-02-19T04:11:45.748Z,9.10
2023-02-19T04:14:51.958Z,9.10
2023-02-19T04:17:47.396Z,9.10
2023-02-19T04:20:39.134Z,9.00
2023-02-19T04:23:27.745Z,9.10
2023-02-19T04:26:14.952Z,9.10
2023-02-19T04:29:00.263Z,9.10
2023-02-19T04:31:45.511Z,9.10
2023-02-19T04:34:30.879Z,9.10
2023-02-19T04:37:16.223Z,9.20
2023-02-19T04:40:01.725Z,9.10
2023-02-19T04:42:47.002Z,9.30
2023-02-19T04:45:32.301Z,9.10
2023-02-19T04:48:17.713Z,9.10
2023-02-19T04:51:10.346Z,9.20
2023-02-19T04:53:56.379Z,9.20
2023-02-19T04:56:41.879Z,9.10
2023-02-19T04:59:27.107Z,9.10
2023-02-19T05:02:12.534Z,9.10
2023-02-19T05:04:58.064Z,9.20
2023-02-19T05:07:43.322Z,9.30
2023-02-19T05:10:28.549Z,9.20
2023-02-19T05:13:13.778Z,9.20
2023-02-19T05:16:09.718Z,9.20
2023-02-19T05:18:54.773Z,9.30
2023-02-19T05:21:42.987Z,9.30
2023-02-19T05:24:28.317Z,9.20
2023-02-19T05:27:13.378Z,9.20
2023-02-19T05:29:59.127Z,9.30
2023-02-19T05:32:44.330Z,9.40
2023-02-19T05:35:29.724Z,9.30
2023-02-19T05:38:16.027Z,9.30
2023-02-19T05:41:28.723Z,9.40
2023-02-19T05:44:13.699Z,9.40
2023-02-19T05:46:59.047Z,9.40
2023-02-19T05:49:44.493Z,9.20
2023-02-19T05:52:29.860Z,9.30
2023-02-19T05:55:15.430Z,9.20
2023-02-19T05:58:01.200Z,9.30
2023-02-19T06:00:46.541Z,9.20
2023-02-19T06:03:31.927Z,9.30
2023-02-19T06:06:18.732Z,9.30
2023-02-19T06:09:05.348Z,9.30
2023-02-19T06:11:50.602Z,9.30
2023-02-19T06:14:35.941Z,9.30
2023-02-19T06:17:21.265Z,9.30
2023-02-19T06:20:07.038Z,9.30
2023-02-19T06:22:52.516Z,9.30
2023-02-19T06:25:37.816Z,9.30
2023-02-19T06:28:23.016Z,9.30
2023-02-19T06:31:09.858Z,9.30
2023-02-19T06:33:55.366Z,9.30
2023-02-19T06:36:40.784Z,9.30
2023-02-19T06:39:26.780Z,9.30
2023-02-19T06:42:12.187Z,9.20
2023-02-19T06:44:57.481Z,9.30
2023-02-19T06:47:42.865Z,9.40
2023-02-19T06:50:28.303Z,9.40
2023-02-19T06:53:13.677Z,9.30
2023-02-19T06:56:01.456Z,9.30
2023-02-19T06:58:46.938Z,9.30
2023-02-19T07:01:34.394Z,9.40
2023-02-19T07:04:19.993Z,9.40
2023-02-19T07:07:05.456Z,9.30
2023-02-19T07:09:50.645Z,9.20
2023-02-19T07:12:36.016Z,9.30
2023-02-19T07:15:21.378Z,9.30
2023-02-19T07:18:10.292Z,9.40
2023-02-19T07:20:55.766Z,9.40
2023-02-19T07:23:42.189Z,9.30
2023-02-19T07:26:27.639Z,9.30
2023-02-19T07:29:13.022Z,9.30
2023-02-19T07:31:58.426Z,9.30
2023-02-19T07:34:43.726Z,9.30
2023-02-19T07:37:29.080Z,9.40
2023-02-19T07:40:14.518Z,9.30
2023-02-19T07:43:00.593Z,9.30
2023-02-19T07:45:46.183Z,9.40
2023-02-19T07:48:31.818Z,9.30
2023-02-19T07:51:19.192Z,9.30
2023-02-19T07:54:04.495Z,9.20
2023-02-19T07:56:50.023Z,9.30
2023-02-19T07:59:35.576Z,9.40
2023-02-19T08:02:39.857Z,9.40
2023-02-19T08:05:25.759Z,9.40
2023-02-19T08:08:13.682Z,9.40
2023-02-19T08:11:22.559Z,9.40
2023-02-19T08:14:07.877Z,9.40
2023-02-19T08:16:54.077Z,9.50
2023-02-19T08:19:39.622Z,9.40
2023-02-19T08:22:25.104Z,9.40
2023-02-19T08:25:10.415Z,9.40
2023-02-19T08:27:55.850Z,9.40
2023-02-19T08:30:45.219Z,9.40
2023-02-19T08:33:31.009Z,9.40
2023-02-19T08:36:16.393Z,9.40
2023-02-19T08:39:01.815Z,9.40
2023-02-19T08:41:47.916Z,9.40
2023-02-19T08:44:33.255Z,9.40
2023-02-19T08:47:18.443Z,9.40
2023-02-19T08:50:05.248Z,9.40
2023-02-19T08:52:50.726Z,9.30
2023-02-19T08:55:38.695Z,9.30
2023-02-19T08:58:26.213Z,9.40
2023-02-19T09:01:15.398Z,9.40
2023-02-19T09:04:01.227Z,9.50
2023-02-19T09:06:46.493Z,9.50
2023-02-19T09:09:31.871Z,9.60
2023-02-19T09:12:17.227Z,9.60
2023-02-19T09:15:02.738Z,9.60
2023-02-19T09:17:54.457Z,9.70
2023-02-19T09:20:39.696Z,9.60
2023-02-19T09:23:25.118Z,9.60
2023-02-19T09:26:11.421Z,9.60
2023-02-19T09:28:56.526Z,9.70
2023-02-19T09:31:41.949Z,9.70
2023-02-19T09:34:28.798Z,9.70
2023-02-19T09:37:13.867Z,9.80
2023-02-19T09:39:59.307Z,9.90
2023-02-19T09:42:44.869Z,9.90
2023-02-19T09:45:30.346Z,9.90
2023-02-19T09:48:15.801Z,10.00
2023-02-19T09:51:02.600Z,10.10
2023-02-19T09:53:50.398Z,10.00
2023-02-19T09:56:35.497Z,10.00
2023-02-19T09:59:36.916Z,10.10
2023-02-19T10:02:24.297Z,10.20
2023-02-19T10:05:14.894Z,10.10
2023-02-19T10:08:00.553Z,10.00
2023-02-19T10:10:45.895Z,10.10
2023-02-19T10:14:09.398Z,10.10
2023-02-19T10:17:00.726Z,10.10
2023-02-19T10:19:46.136Z,10.10
2023-02-19T10:22:33.876Z,10.20
2023-02-19T10:25:19.010Z,10.20
2023-02-19T10:28:06.837Z,10.30
2023-02-19T10:30:56.109Z,10.30
2023-02-19T10:33:58.743Z,10.40
2023-02-19T10:36:46.107Z,10.30
2023-02-19T10:39:46.854Z,10.50
2023-02-19T10:42:32.166Z,10.70
2023-02-19T10:45:21.833Z,10.90
2023-02-19T10:48:20.974Z,10.90
2023-02-19T10:51:10.766Z,10.70
2023-02-19T10:54:07.536Z,10.60
2023-02-19T10:56:54.078Z,10.70
2023-02-19T10:59:49.902Z,10.60
2023-02-19T11:02:35.454Z,10.60
2023-02-19T11:05:21.352Z,10.70
2023-02-19T11:08:20.408Z,10.80
2023-02-19T11:11:06.400Z,10.80
2023-02-19T11:13:52.013Z,10.80
2023-02-19T11:16:51.862Z,10.70
2023-02-19T11:19:43.179Z,10.80
2023-02-19T11:22:33.103Z,10.90
2023-02-19T11:25:21.433Z,10.90
2023-02-19T11:28:20.587Z,10.70
2023-02-19T11:31:34.153Z,10.70
2023-02-19T11:34:21.191Z,10.60
2023-02-19T11:37:23.538Z,10.60
2023-02-19T11:40:12.275Z,10.50
2023-02-19T11:43:06.595Z,10.50
2023-02-19T11:46:01.318Z,10.50
2023-02-19T11:49:12.831Z,10.40
2023-02-19T11:52:10.971Z,10.40
2023-02-19T11:55:11.143Z,10.40
2023-02-19T11:58:17.633Z,10.40
2023-02-19T12:01:29.885Z,10.50
2023-02-19T12:04:52.692Z,10.60
2023-02-19T12:07:56.550Z,10.50
2023-02-19T12:11:03.537Z,10.50
2023-02-19T12:14:42.617Z,10.50
2023-02-19T12:17:46.682Z,10.60
2023-02-19T12:20:43.575Z,10.60
2023-02-19T12:23:54.918Z,10.60
2023-02-19T12:27:04.082Z,10.50
2023-02-19T12:30:17.378Z,10.50
2023-02-19T12:33:21.671Z,10.50
2023-02-19T12:36:44.926Z,10.50
2023-02-19T12:39:35.713Z,10.60
2023-02-19T12:42:39.493Z,10.50
2023-02-19T12:45:31.707Z,10.40
2023-02-19T12:48:48.575Z,10.40
2023-02-19T12:51:42.493Z,10.40
2023-02-19T12:54:34.183Z,10.30
2023-02-19T12:57:31.600Z,10.30
2023-02-19T13:00:35.488Z,10.30
2023-02-19T13:03:40.197Z,10.30
2023-02-19T13:07:23.751Z,10.40
2023-02-19T13:10:31.989Z,10.30
2023-02-19T13:13:28.959Z,10.00
2023-02-19T13:16:20.711Z,9.90
2023-02-19T13:19:06.281Z,9.50
2023-02-19T13:22:21.772Z,9.50
2023-02-19T13:25:09.447Z,9.50
2023-02-19T13:28:19.152Z,9.60
2023-02-19T13:31:45.296Z,9.80
2023-02-19T13:34:47.683Z,10.00
2023-02-19T13:37:35.092Z,10.30
2023-02-19T13:40:35.737Z,10.50
2023-02-19T13:43:26.519Z,10.50
2023-02-19T13:46:15.607Z,10.60
2023-02-19T13:49:22.681Z,10.50
2023-02-19T13:52:29.642Z,10.60
2023-02-19T13:55:43.098Z,10.60
2023-02-19T13:58:34.659Z,10.60
2023-02-19T14:01:40.183Z,10.70
2023-02-19T14:05:10.302Z,10.70
2023-02-19T14:07:56.044Z,10.50
2023-02-19T14:10:57.555Z,10.50
2023-02-19T14:13:52.114Z,10.40
2023-02-19T14:16:37.913Z,10.40
2023-02-19T14:19:41.501Z,10.30
2023-02-19T14:22:45.436Z,10.30
2023-02-19T14:25:42.748Z,10.30
2023-02-19T14:28:30.075Z,10.30
2023-02-19T14:31:26.922Z,10.40
2023-02-19T14:34:22.796Z,10.40
2023-02-19T14:37:18.121Z,10.20
2023-02-19T14:40:05.052Z,10.10
2023-02-19T14:42:53.214Z,10.10
2023-02-19T14:45:43.184Z,10.20
2023-02-19T14:48:39.480Z,10.20
2023-02-19T14:51:36.170Z,10.20
2023-02-19T14:54:35.851Z,10.10
2023-02-19T14:57:28.489Z,10.00
2023-02-19T15:00:22.327Z,9.80
2023-02-19T15:03:23.847Z,9.80
2023-02-19T15:06:13.889Z,9.80
2023-02-19T15:09:05.761Z,9.90
2023-02-19T15:11:51.357Z,10.00
2023-02-19T15:14:36.918Z,10.00
2023-02-19T15:17:34.035Z,10.00
2023-02-19T15:20:28.454Z,10.00
2023-02-19T15:23:22.047Z,10.10
2023-02-19T15:26:22.754Z,10.10
2023-02-19T15:29:14.228Z,10.20
2023-02-19T15:32:00.828Z,10.20
2023-02-19T15:34:55.460Z,10.20
2023-02-19T15:37:41.455Z,10.20
2023-02-19T15:40:30.432Z,10.10
2023-02-19T15:43:53.745Z,10.10
2023-02-19T15:46:41.006Z,10.10
2023-02-19T15:49:36.643Z,10.10
2023-02-19T15:52:48.232Z,10.20
2023-02-19T15:55:44.350Z,10.20
2023-02-19T15:58:37.617Z,10.00
2023-02-19T16:01:35.856Z,10.00
2023-02-19T16:04:20.977Z,10.00
2023-02-19T16:07:06.426Z,10.00
2023-02-19T16:10:20.326Z,10.00
2023-02-19T16:13:08.174Z,10.00
2023-02-19T16:16:01.236Z,10.00
2023-02-19T16:18:48.597Z,10.00
2023-02-19T16:21:34.091Z,10.00
2023-02-19T16:24:34.568Z,10.00
2023-02-19T16:27:36.690Z,10.00
2023-02-19T16:30:30.200Z,10.00
2023-02-19T16:33:34.658Z,10.00
2023-02-19T16:36:39.156Z,10.10
2023-02-19T16:39:24.442Z,10.10
2023-02-19T16:42:13.397Z,10.10
2023-02-19T16:44:58.662Z,10.10
2023-02-19T16:47:48.407Z,10.00
2023-02-19T16:50:33.689Z,10.00
2023-02-19T16:53:21.808Z,10.10
2023-02-19T16:56:15.327Z,10.00
2023-02-19T16:59:00.687Z,10.00
2023-02-19T17:01:46.080Z,10.00
2023-02-19T17:04:31.740Z,9.90
2023-02-19T17:07:18.024Z,9.90
2023-02-19T17:10:03.410Z,10.00
2023-02-19T17:12:49.550Z,10.00
2023-02-19T17:15:35.053Z,9.90
2023-02-19T17:18:20.396Z,9.90
2023-02-19T17:21:15.220Z,9.90
2023-02-19T17:24:00.779Z,9.90
2023-02-19T17:26:46.025Z,9.80
2023-02-19T17:29:33.881Z,9.80
2023-02-19T17:32:19.325Z,9.80
2023-02-19T17:35:05.223Z,9.90
2023-02-19T17:37:53.255Z,9.90
2023-02-19T17:40:39.175Z,9.90
2023-02-19T17:43:25.520Z,9.90
2023-02-19T17:46:16.130Z,9.90
2023-02-19T17:49:01.468Z,9.80
2023-02-19T17:51:46.787Z,9.90
2023-02-19T17:54:32.126Z,9.90
2023-02-19T17:57:17.521Z,9.90
2023-02-19T18:00:04.495Z,9.80
2023-02-19T18:02:49.885Z,9.80
2023-02-19T18:05:35.143Z,9.80
2023-02-19T18:08:20.400Z,9.70
2023-02-19T18:11:07.125Z,9.70
2023-02-19T18:13:52.501Z,9.70
2023-02-19T18:16:38.001Z,9.60
2023-02-19T18:19:23.335Z,9.70
2023-02-19T18:22:08.600Z,9.70
2023-02-19T18:24:54.071Z,9.70
2023-02-19T18:27:39.399Z,9.70
2023-02-19T18:30:24.989Z,9.70
2023-02-19T18:33:13.123Z,9.60
2023-02-19T18:35:58.389Z,9.50
2023-02-19T18:38:43.797Z,9.50
2023-02-19T18:41:29.200Z,9.40
2023-02-19T18:44:21.386Z,9.40
2023-02-19T18:47:08.204Z,9.50
2023-02-19T18:49:55.463Z,9.40
2023-02-19T18:52:40.538Z,9.50
2023-02-19T18:55:25.883Z,9.50
2023-02-19T18:58:11.078Z,9.50
2023-02-19T19:00:56.976Z,9.60
2023-02-19T19:03:42.434Z,9.50
2023-02-19T19:06:27.858Z,9.50
2023-02-19T19:09:13.295Z,9.50
2023-02-19T19:11:58.930Z,9.50
2023-02-19T19:14:44.887Z,9.50
2023-02-19T19:17:30.079Z,9.50
2023-02-19T19:20:18.791Z,9.50
2023-02-19T19:23:06.012Z,9.60
2023-02-19T19:25:51.029Z,9.60
2023-02-19T19:28:38.576Z,9.60
2023-02-19T19:31:25.678Z,9.60
2023-02-19T19:34:12.252Z,9.60
2023-02-19T19:36:57.344Z,9.70
2023-02-19T19:39:43.906Z,9.60
2023-02-19T19:42:29.289Z,9.70
2023-02-19T19:45:15.582Z,9.60
2023-02-19T19:48:01.317Z,9.60
2023-02-19T19:50:46.435Z,9.60
2023-02-19T19:53:32.264Z,9.60
2023-02-19T19:56:17.724Z,9.60
2023-02-19T19:59:02.848Z,9.50
2023-02-19T20:01:50.543Z,9.60
2023-02-19T20:04:35.691Z,9.60
2023-02-19T20:07:21.097Z,9.50
2023-02-19T20:10:07.968Z,9.50
2023-02-19T20:12:53.508Z,9.50
2023-02-19T20:15:38.759Z,9.50
2023-02-19T20:18:25.894Z,9.50
2023-02-19T20:21:11.532Z,9.60
2023-02-19T20:23:57.096Z,9.60
2023-02-19T20:26:43.077Z,9.50
2023-02-19T20:29:30.978Z,9.50
2023-02-19T20:32:18.548Z,9.50
2023-02-19T20:35:04.190Z,9.60
2023-02-19T20:37:49.619Z,9.60
2023-02-19T20:40:36.099Z,9.60
2023-02-19T20:43:21.733Z,9.60
2023-02-19T20:46:07.621Z,9.60
2023-02-19T20:48:52.927Z,9.50
2023-02-19T20:51:54.807Z,9.50
2023-02-19T20:54:42.342Z,9.60
2023-02-19T20:57:27.644Z,9.50
2023-02-19T21:00:15.507Z,9.50
2023-02-19T21:03:00.706Z,9.50
2023-02-19T21:05:45.968Z,9.50
2023-02-19T21:08:31.537Z,9.50
2023-02-19T21:11:16.881Z,9.50
2023-02-19T21:14:03.355Z,9.50
2023-02-19T21:16:48.838Z,9.50
2023-02-19T21:19:34.215Z,9.50
2023-02-19T21:22:19.590Z,9.50
2023-02-19T21:25:05.064Z,9.50
2023-02-19T21:27:50.450Z,9.50
2023-02-19T21:30:36.068Z,9.50
2023-02-19T21:33:21.401Z,9.50
2023-02-19T21:36:07.264Z,9.50
2023-02-19T21:38:52.517Z,9.50
2023-02-19T21:41:37.869Z,9.50
2023-02-19T21:44:23.363Z,9.40
2023-02-19T21:47:10.630Z,9.50
2023-02-19T21:49:55.841Z,9.40
2023-02-19T21:52:42.168Z,9.50
2023-02-19T21:55:28.861Z,9.40
2023-02-19T21:58:14.235Z,9.40
2023-02-19T22:00:59.647Z,9.50
2023-02-19T22:03:44.975Z,9.50
2023-02-19T22:06:31.264Z,9.50
2023-02-19T22:09:16.785Z,9.50
2023-02-19T22:12:02.093Z,9.40
2023-02-19T22:14:47.432Z,9.40
2023-02-19T22:17:32.947Z,9.40
2023-02-19T22:20:19.536Z,9.40
2023-02-19T22:23:06.028Z,9.30
2023-02-19T22:25:51.815Z,9.30
2023-02-19T22:28:38.539Z,9.30
2023-02-19T22:31:25.556Z,9.20
2023-02-19T22:34:11.000Z,9.30
2023-02-19T22:36:56.079Z,9.30
2023-02-19T22:39:41.504Z,9.20
2023-02-19T22:42:26.961Z,9.20
2023-02-19T22:45:13.130Z,9.20
2023-02-19T22:47:58.543Z,9.20
2023-02-19T22:50:43.807Z,9.10
2023-02-19T22:53:29.257Z,9.10
2023-02-19T22:56:16.702Z,9.10
2023-02-19T22:59:01.881Z,9.10
2023-02-19T23:01:48.926Z,9.10
2023-02-19T23:04:34.220Z,9.10
2023-02-19T23:07:19.746Z,9.10
2023-02-19T23:10:05.679Z,9.00
2023-02-19T23:12:51.134Z,8.90
2023-02-19T23:15:36.564Z,9.00
2023-02-19T23:18:21.971Z,9.00
2023-02-19T23:21:07.444Z,8.90
2023-02-19T23:23:52.553Z,8.90
2023-02-19T23:26:46.116Z,8.80
2023-02-19T23:29:31.457Z,8.80
2023-02-19T23:32:20.783Z,8.80
2023-02-19T23:35:06.381Z,8.70
2023-02-19T23:37:51.448Z,8.70
2023-02-19T23:40:36.892Z,8.70
2023-02-19T23:43:22.359Z,8.70
2023-02-19T23:46:07.760Z,8.70
2023-02-19T23:48:53.396Z,8.70
2023-02-19T23:51:38.798Z,8.70
2023-02-19T23:54:24.195Z,8.70
2023-02-19T23:57:09.456Z,8.80
2023-02-19T23:59:55.017Z,8.90
